sensor_id;sensor_type;location;lat;lon;timestamp;pressure;altitude;pressure_sealevel;temperature;humidity
6599;BME280;3335;43.198;27.918;2022-07-29T00:00:12;152907.19;;;22.68;100.00
6599;BME280;3335;43.198;27.918;2022-07-29T00:02:39;152934.97;;;22.80;100.00
6599;BME280;3335;43.198;27.918;2022-07-29T00:05:07;152913.56;;;22.71;100.00
6599;BME280;3335;43.198;27.918;2022-07-29T00:07:34;152904.69;;;22.67;100.00
6599;BME280;3335;43.198;27.918;2022-07-29T00:10:01;152883.28;;;22.59;100.00
6599;BME280;3335;43.198;27.918;2022-07-29T00:12:28;152877.00;;;22.56;100.00
6599;BME280;3335;43.198;27.918;2022-07-29T00:14:57;152877.00;;;22.56;100.00
6599;BME280;3335;43.198;27.918;2022-07-29T00:17:24;152855.53;;;22.48;100.00
6599;BME280;3335;43.198;27.918;2022-07-29T00:19:51;152860.59;;;22.50;100.00
6599;BME280;3335;43.198;27.918;2022-07-29T00:22:18;152704.41;;;21.87;100.00
6599;BME280;3335;43.198;27.918;2022-07-29T00:24:47;152897.13;;;22.64;100.00
6599;BME280;3335;43.198;27.918;2022-07-29T00:27:14;152837.94;;;22.41;100.00
6599;BME280;3335;43.198;27.918;2022-07-29T00:29:40;152866.88;;;22.52;100.00
6599;BME280;3335;43.198;27.918;2022-07-29T00:32:09;152753.56;;;22.07;100.00
6599;BME280;3335;43.198;27.918;2022-07-29T00:34:36;152861.88;;;22.50;100.00
6599;BME280;3335;43.198;27.918;2022-07-29T00:37:20;152845.47;;;22.44;100.00
6599;BME280;3335;43.198;27.918;2022-07-29T00:39:47;152836.66;;;22.40;100.00
6599;BME280;3335;43.198;27.918;2022-07-29T00:42:14;152837.94;;;22.41;100.00
6599;BME280;3335;43.198;27.918;2022-07-29T00:44:42;152824.06;;;22.35;100.00
6599;BME280;3335;43.198;27.918;2022-07-29T00:47:11;152855.53;;;22.48;100.00
6599;BME280;3335;43.198;27.918;2022-07-29T00:49:39;152851.78;;;22.46;100.00
6599;BME280;3335;43.198;27.918;2022-07-29T00:52:07;152844.22;;;22.43;100.00
6599;BME280;3335;43.198;27.918;2022-07-29T00:54:35;152839.19;;;22.41;100.00
6599;BME280;3335;43.198;27.918;2022-07-29T00:57:02;152814.00;;;22.31;100.00
6599;BME280;3335;43.198;27.918;2022-07-29T00:59:29;152808.94;;;22.29;100.00
6599;BME280;3335;43.198;27.918;2022-07-29T01:01:56;152791.34;;;22.22;100.00
6599;BME280;3335;43.198;27.918;2022-07-29T01:04:24;152811.47;;;22.30;100.00
6599;BME280;3335;43.198;27.918;2022-07-29T01:06:51;152767.41;;;22.12;100.00
6599;BME280;3335;43.198;27.918;2022-07-29T01:09:19;152819.06;;;22.33;100.00
6599;BME280;3335;43.198;27.918;2022-07-29T01:11:47;152821.53;;;22.34;100.00
6599;BME280;3335;43.198;27.918;2022-07-29T01:14:14;152810.22;;;22.30;100.00
6599;BME280;3335;43.198;27.918;2022-07-29T01:16:46;152773.69;;;22.15;100.00
6599;BME280;3335;43.198;27.918;2022-07-29T01:19:31;152776.22;;;22.16;100.00
6599;BME280;3335;43.198;27.918;2022-07-29T01:22:13;152791.34;;;22.22;100.00
6599;BME280;3335;43.198;27.918;2022-07-29T01:25:08;152764.88;;;22.11;100.00
6599;BME280;3335;43.198;27.918;2022-07-29T01:27:48;152768.69;;;22.13;100.00
6599;BME280;3335;43.198;27.918;2022-07-29T01:30:21;152771.22;;;22.14;100.00
6599;BME280;3335;43.198;27.918;2022-07-29T01:32:54;152748.53;;;22.05;100.00
6599;BME280;3335;43.198;27.918;2022-07-29T01:35:25;152725.84;;;21.96;100.00
6599;BME280;3335;43.198;27.918;2022-07-29T01:37:57;152735.94;;;22.00;100.00
6599;BME280;3335;43.198;27.918;2022-07-29T01:42:57;152704.41;;;21.87;100.00
6599;BME280;3335;43.198;27.918;2022-07-29T01:45:31;152677.94;;;21.76;100.00
6599;BME280;3335;43.198;27.918;2022-07-29T01:48:02;152713.19;;;21.91;100.00
6599;BME280;3335;43.198;27.918;2022-07-29T01:50:35;152604.97;;;21.47;100.00
6599;BME280;3335;43.198;27.918;2022-07-29T01:53:04;152728.38;;;21.97;100.00
6599;BME280;3335;43.198;27.918;2022-07-29T01:55:36;152729.63;;;21.97;100.00
6599;BME280;3335;43.198;27.918;2022-07-29T01:58:05;152698.13;;;21.85;100.00
6599;BME280;3335;43.198;27.918;2022-07-29T02:00:35;152728.38;;;21.97;100.00
6599;BME280;3335;43.198;27.918;2022-07-29T02:03:07;152708.19;;;21.89;100.00
6599;BME280;3335;43.198;27.918;2022-07-29T02:05:37;152693.06;;;21.82;100.00
6599;BME280;3335;43.198;27.918;2022-07-29T02:08:05;152695.59;;;21.83;100.00
6599;BME280;3335;43.198;27.918;2022-07-29T02:10:33;152622.56;;;21.54;100.00
6599;BME280;3335;43.198;27.918;2022-07-29T02:13:03;152660.34;;;21.69;100.00
6599;BME280;3335;43.198;27.918;2022-07-29T02:15:32;152665.41;;;21.71;100.00
6599;BME280;3335;43.198;27.918;2022-07-29T02:18:06;152651.53;;;21.66;100.00
6599;BME280;3335;43.198;27.918;2022-07-29T02:20:34;152662.88;;;21.70;100.00
6599;BME280;3335;43.198;27.918;2022-07-29T02:23:02;152637.69;;;21.60;100.00
6599;BME280;3335;43.198;27.918;2022-07-29T02:25:30;152632.63;;;21.58;100.00
6599;BME280;3335;43.198;27.918;2022-07-29T02:27:59;152645.22;;;21.63;100.00
6599;BME280;3335;43.198;27.918;2022-07-29T02:30:28;152655.28;;;21.67;100.00
6599;BME280;3335;43.198;27.918;2022-07-29T02:32:56;152656.56;;;21.68;100.00
6599;BME280;3335;43.198;27.918;2022-07-29T02:35:26;152645.22;;;21.63;100.00
6599;BME280;3335;43.198;27.918;2022-07-29T02:37:54;152647.75;;;21.64;100.00
6599;BME280;3335;43.198;27.918;2022-07-29T02:40:39;152647.75;;;21.64;100.00
6599;BME280;3335;43.198;27.918;2022-07-29T02:43:10;152638.97;;;21.61;100.00
6599;BME280;3335;43.198;27.918;2022-07-29T02:45:37;152642.69;;;21.62;100.00
6599;BME280;3335;43.198;27.918;2022-07-29T02:48:08;152640.22;;;21.61;100.00
6599;BME280;3335;43.198;27.918;2022-07-29T02:50:41;152616.28;;;21.52;100.00
6599;BME280;3335;43.198;27.918;2022-07-29T02:53:13;152599.91;;;21.45;100.00
6599;BME280;3335;43.198;27.918;2022-07-29T02:55:45;152564.69;;;21.31;100.00
6599;BME280;3335;43.198;27.918;2022-07-29T02:58:17;152587.31;;;21.40;100.00
6599;BME280;3335;43.198;27.918;2022-07-29T03:00:49;152597.38;;;21.44;100.00
6599;BME280;3335;43.198;27.918;2022-07-29T03:03:18;152604.97;;;21.47;100.00
6599;BME280;3335;43.198;27.918;2022-07-29T03:05:46;152604.97;;;21.47;100.00
6599;BME280;3335;43.198;27.918;2022-07-29T03:08:14;152446.34;;;20.83;100.00
6599;BME280;3335;43.198;27.918;2022-07-29T03:10:44;152587.31;;;21.40;100.00
6599;BME280;3335;43.198;27.918;2022-07-29T03:13:12;152572.22;;;21.34;100.00
6599;BME280;3335;43.198;27.918;2022-07-29T03:15:42;152577.28;;;21.36;100.00
6599;BME280;3335;43.198;27.918;2022-07-29T03:18:09;152559.63;;;21.29;100.00
6599;BME280;3335;43.198;27.918;2022-07-29T03:20:37;152564.69;;;21.31;100.00
6599;BME280;3335;43.198;27.918;2022-07-29T03:23:05;152543.28;;;21.22;100.00
6599;BME280;3335;43.198;27.918;2022-07-29T03:25:32;152521.91;;;21.14;100.00
6599;BME280;3335;43.198;27.918;2022-07-29T03:27:59;152506.75;;;21.08;100.00
6599;BME280;3335;43.198;27.918;2022-07-29T03:30:26;152524.38;;;21.15;100.00
6599;BME280;3335;43.198;27.918;2022-07-29T03:32:56;152526.91;;;21.16;100.00
6599;BME280;3335;43.198;27.918;2022-07-29T03:35:23;152539.50;;;21.21;100.00
6599;BME280;3335;43.198;27.918;2022-07-29T03:37:50;152564.69;;;21.31;100.00
6599;BME280;3335;43.198;27.918;2022-07-29T03:40:21;152562.16;;;21.30;100.00
6599;BME280;3335;43.198;27.918;2022-07-29T03:42:49;152582.31;;;21.38;100.00
6599;BME280;3335;43.198;27.918;2022-07-29T03:45:19;152584.81;;;21.39;100.00
6599;BME280;3335;43.198;27.918;2022-07-29T03:47:49;152573.47;;;21.34;100.00
6599;BME280;3335;43.198;27.918;2022-07-29T03:50:17;152589.84;;;21.41;100.00
6599;BME280;3335;43.198;27.918;2022-07-29T03:52:47;152560.88;;;21.29;100.00
6599;BME280;3335;43.198;27.918;2022-07-29T03:55:14;152548.31;;;21.24;100.00
6599;BME280;3335;43.198;27.918;2022-07-29T03:57:44;152577.28;;;21.36;100.00
6599;BME280;3335;43.198;27.918;2022-07-29T04:00:12;152569.72;;;21.33;100.00
6599;BME280;3335;43.198;27.918;2022-07-29T04:02:41;152565.94;;;21.31;100.00
6599;BME280;3335;43.198;27.918;2022-07-29T04:05:12;152582.31;;;21.38;100.00
6599;BME280;3335;43.198;27.918;2022-07-29T04:07:39;152584.81;;;21.39;100.00
6599;BME280;3335;43.198;27.918;2022-07-29T04:10:07;152514.28;;;21.11;100.00
6599;BME280;3335;43.198;27.918;2022-07-29T04:12:34;152579.78;;;21.37;100.00
6599;BME280;3335;43.198;27.918;2022-07-29T04:15:03;152616.28;;;21.52;100.00
6599;BME280;3335;43.198;27.918;2022-07-29T04:17:30;152636.44;;;21.60;100.00
6599;BME280;3335;43.198;27.918;2022-07-29T04:19:57;152647.75;;;21.64;100.00
6599;BME280;3335;43.198;27.918;2022-07-29T04:22:24;152667.88;;;21.72;100.00
6599;BME280;3335;43.198;27.918;2022-07-29T04:24:51;152680.47;;;21.77;100.00
6599;BME280;3335;43.198;27.918;2022-07-29T04:27:18;152688.06;;;21.80;100.00
6599;BME280;3335;43.198;27.918;2022-07-29T04:29:45;152705.66;;;21.88;100.00
6599;BME280;3335;43.198;27.918;2022-07-29T04:32:14;152711.97;;;21.90;100.00
6599;BME280;3335;43.198;27.918;2022-07-29T04:34:40;152723.34;;;21.95;100.00
6599;BME280;3335;43.198;27.918;2022-07-29T04:37:07;152732.16;;;21.98;100.00
6599;BME280;3335;43.198;27.918;2022-07-29T04:39:34;152751.03;;;22.06;100.00
6599;BME280;3335;43.198;27.918;2022-07-29T04:42:01;152761.09;;;22.10;100.00
6599;BME280;3335;43.198;27.918;2022-07-29T04:44:28;152771.22;;;22.14;100.00
6599;BME280;3335;43.198;27.918;2022-07-29T04:46:56;152795.13;;;22.23;100.00
6599;BME280;3335;43.198;27.918;2022-07-29T04:49:24;152806.47;;;22.28;100.00
6599;BME280;3335;43.198;27.918;2022-07-29T04:51:51;152791.34;;;22.22;100.00
6599;BME280;3335;43.198;27.918;2022-07-29T04:54:18;152791.34;;;22.22;100.00
6599;BME280;3335;43.198;27.918;2022-07-29T04:56:45;152827.88;;;22.37;100.00
6599;BME280;3335;43.198;27.918;2022-07-29T04:59:12;152816.53;;;22.32;100.00
6599;BME280;3335;43.198;27.918;2022-07-29T05:01:39;152861.88;;;22.50;100.00
6599;BME280;3335;43.198;27.918;2022-07-29T05:04:06;152871.94;;;22.54;100.00
6599;BME280;3335;43.198;27.918;2022-07-29T05:06:34;152887.06;;;22.60;100.00
6599;BME280;3335;43.198;27.918;2022-07-29T05:09:01;152903.41;;;22.67;100.00
6599;BME280;3335;43.198;27.918;2022-07-29T05:11:28;152914.78;;;22.72;100.00
6599;BME280;3335;43.198;27.918;2022-07-29T05:13:54;152934.97;;;22.80;100.00
6599;BME280;3335;43.198;27.918;2022-07-29T05:16:21;152955.13;;;22.88;100.00
6599;BME280;3335;43.198;27.918;2022-07-29T05:18:48;152982.84;;;22.99;100.00
6599;BME280;3335;43.198;27.918;2022-07-29T05:21:15;153003.00;;;23.07;100.00
6599;BME280;3335;43.198;27.918;2022-07-29T05:23:44;153023.16;;;23.15;100.00
6599;BME280;3335;43.198;27.918;2022-07-29T05:26:11;153035.75;;;23.20;100.00
6599;BME280;3335;43.198;27.918;2022-07-29T05:28:37;153058.44;;;23.29;100.00
6599;BME280;3335;43.198;27.918;2022-07-29T05:31:04;153049.63;;;23.26;100.00
6599;BME280;3335;43.198;27.918;2022-07-29T05:33:31;153091.22;;;23.42;100.00
6599;BME280;3335;43.198;27.918;2022-07-29T05:35:58;153103.84;;;23.47;100.00
6599;BME280;3335;43.198;27.918;2022-07-29T05:38:25;153126.56;;;23.57;100.00
6599;BME280;3335;43.198;27.918;2022-07-29T05:40:56;153156.78;;;23.69;100.00
6599;BME280;3335;43.198;27.918;2022-07-29T05:43:23;153174.47;;;23.76;100.00
6599;BME280;3335;43.198;27.918;2022-07-29T05:45:50;153207.22;;;23.89;100.00
6599;BME280;3335;43.198;27.918;2022-07-29T05:48:17;153237.47;;;24.01;100.00
6599;BME280;3335;43.198;27.918;2022-07-29T05:50:43;153267.75;;;24.13;100.00
6599;BME280;3335;43.198;27.918;2022-07-29T05:53:10;153290.50;;;24.22;100.00
6599;BME280;3335;43.198;27.918;2022-07-29T05:55:37;153319.47;;;24.34;100.00
6599;BME280;3335;43.198;27.918;2022-07-29T05:58:05;153342.16;;;24.43;100.00
6599;BME280;3335;43.198;27.918;2022-07-29T06:00:32;153103.84;;;23.47;100.00
6599;BME280;3335;43.198;27.918;2022-07-29T06:02:59;153386.31;;;24.61;100.00
6599;BME280;3335;43.198;27.918;2022-07-29T06:05:26;153417.84;;;24.73;100.00
6599;BME280;3335;43.198;27.918;2022-07-29T06:07:53;153438.00;;;24.81;100.00
6599;BME280;3335;43.198;27.918;2022-07-29T06:10:20;153477.19;;;24.97;100.00
6599;BME280;3335;43.198;27.918;2022-07-29T06:12:47;153502.41;;;25.07;100.00
6599;BME280;3335;43.198;27.918;2022-07-29T06:15:15;153520.03;;;25.14;100.00
6599;BME280;3335;43.198;27.918;2022-07-29T06:17:42;153540.25;;;25.22;100.00
6599;BME280;3335;43.198;27.918;2022-07-29T06:20:10;153560.44;;;25.31;100.00
6599;BME280;3335;43.198;27.918;2022-07-29T06:22:37;153583.16;;;25.40;100.00
6599;BME280;3335;43.198;27.918;2022-07-29T06:25:05;153585.69;;;25.41;100.00
6599;BME280;3335;43.198;27.918;2022-07-29T06:27:32;153610.91;;;25.51;100.00
6599;BME280;3335;43.198;27.918;2022-07-29T06:29:59;153634.94;;;25.60;100.00
6599;BME280;3335;43.198;27.918;2022-07-29T06:32:28;153669.00;;;25.74;100.00
6599;BME280;3335;43.198;27.918;2022-07-29T06:34:56;153679.09;;;25.78;100.00
6599;BME280;3335;43.198;27.918;2022-07-29T06:37:23;153684.16;;;25.80;100.00
6599;BME280;3335;43.198;27.918;2022-07-29T06:39:50;153705.63;;;25.89;100.00
6599;BME280;3335;43.198;27.918;2022-07-29T06:42:37;153733.34;;;26.00;100.00
6599;BME280;3335;43.198;27.918;2022-07-29T06:45:08;153754.84;;;26.08;100.00
6599;BME280;3335;43.198;27.918;2022-07-29T06:47:37;153782.59;;;26.20;100.00
6599;BME280;3335;43.198;27.918;2022-07-29T06:50:04;153812.97;;;26.32;100.00
6599;BME280;3335;43.198;27.918;2022-07-29T06:52:31;153838.22;;;26.42;100.00
6599;BME280;3335;43.198;27.918;2022-07-29T06:54:58;153830.59;;;26.39;100.00
6599;BME280;3335;43.198;27.918;2022-07-29T06:57:25;153824.31;;;26.36;100.00
6599;BME280;3335;43.198;27.918;2022-07-29T06:59:52;153858.41;;;26.50;100.00
6599;BME280;3335;43.198;27.918;2022-07-29T07:02:19;153879.84;;;26.59;100.00
6599;BME280;3335;43.198;27.918;2022-07-29T07:04:48;153887.41;;;26.62;100.00
6599;BME280;3335;43.198;27.918;2022-07-29T07:07:15;153907.66;;;26.70;100.00
6599;BME280;3335;43.198;27.918;2022-07-29T07:09:41;153924.03;;;26.76;100.00
6599;BME280;3335;43.198;27.918;2022-07-29T07:12:08;153940.47;;;26.83;100.00
6599;BME280;3335;43.198;27.918;2022-07-29T07:14:35;153937.94;;;26.82;100.00
6599;BME280;3335;43.198;27.918;2022-07-29T07:17:02;153956.97;;;26.89;100.00
6599;BME280;3335;43.198;27.918;2022-07-29T07:19:29;153967.06;;;26.93;100.00
6599;BME280;3335;43.198;27.918;2022-07-29T07:21:58;153974.63;;;26.96;100.00
6599;BME280;3335;43.198;27.918;2022-07-29T07:24:25;153978.41;;;26.98;100.00
6599;BME280;3335;43.198;27.918;2022-07-29T07:26:51;153992.31;;;27.04;100.00
6599;BME280;3335;43.198;27.918;2022-07-29T07:29:18;153992.31;;;27.04;100.00
6599;BME280;3335;43.198;27.918;2022-07-29T07:31:46;154008.72;;;27.10;100.00
6599;BME280;3335;43.198;27.918;2022-07-29T07:34:13;154030.16;;;27.19;100.00
6599;BME280;3335;43.198;27.918;2022-07-29T07:36:39;154040.31;;;27.23;100.00
6599;BME280;3335;43.198;27.918;2022-07-29T07:39:08;154032.72;;;27.20;100.00
6599;BME280;3335;43.198;27.918;2022-07-29T07:41:35;154051.69;;;27.27;100.00
6599;BME280;3335;43.198;27.918;2022-07-29T07:44:01;154078.16;;;27.38;100.00
6599;BME280;3335;43.198;27.918;2022-07-29T07:46:28;154095.88;;;27.45;100.00
6599;BME280;3335;43.198;27.918;2022-07-29T07:48:55;154080.72;;;27.39;100.00
6599;BME280;3335;43.198;27.918;2022-07-29T07:51:22;154084.50;;;27.40;100.00
6599;BME280;3335;43.198;27.918;2022-07-29T07:53:49;154146.47;;;27.65;100.00
6599;BME280;3335;43.198;27.918;2022-07-29T07:56:17;154171.69;;;27.75;100.00
6599;BME280;3335;43.198;27.918;2022-07-29T07:58:44;154219.72;;;27.95;100.00
6599;BME280;3335;43.198;27.918;2022-07-29T08:01:11;154250.06;;;28.07;100.00
6599;BME280;3335;43.198;27.918;2022-07-29T08:03:38;154262.75;;;28.12;100.00
6599;BME280;3335;43.198;27.918;2022-07-29T08:06:05;154257.63;;;28.10;100.00
6599;BME280;3335;43.198;27.918;2022-07-29T08:08:32;154284.25;;;28.20;100.00
6599;BME280;3335;43.198;27.918;2022-07-29T08:10:59;154313.31;;;28.32;100.00
6599;BME280;3335;43.198;27.918;2022-07-29T08:13:28;154341.09;;;28.43;100.00
6599;BME280;3335;43.198;27.918;2022-07-29T08:15:56;154325.91;;;28.37;100.00
6599;BME280;3335;43.198;27.918;2022-07-29T08:18:27;154362.56;;;28.52;100.00
6599;BME280;3335;43.198;27.918;2022-07-29T08:20:55;154391.69;;;28.63;100.00
6599;BME280;3335;43.198;27.918;2022-07-29T08:23:22;154404.31;;;28.68;100.00
6599;BME280;3335;43.198;27.918;2022-07-29T08:25:49;154406.84;;;28.69;100.00
6599;BME280;3335;43.198;27.918;2022-07-29T08:28:16;154442.31;;;28.84;100.00
6599;BME280;3335;43.198;27.918;2022-07-29T08:30:46;154467.59;;;28.94;100.00
6599;BME280;3335;43.198;27.918;2022-07-29T08:33:12;154470.09;;;28.95;100.00
6599;BME280;3335;43.198;27.918;2022-07-29T08:35:39;154492.84;;;29.04;100.00
6599;BME280;3335;43.198;27.918;2022-07-29T08:38:06;154523.22;;;29.16;100.00
6599;BME280;3335;43.198;27.918;2022-07-29T08:40:33;154532.06;;;29.20;100.00
6599;BME280;3335;43.198;27.918;2022-07-29T08:43:04;154543.44;;;29.24;100.00
6599;BME280;3335;43.198;27.918;2022-07-29T08:45:41;154568.78;;;29.34;100.00
6599;BME280;3335;43.198;27.918;2022-07-29T08:48:11;154583.97;;;29.40;100.00
6599;BME280;3335;43.198;27.918;2022-07-29T08:50:38;154602.91;;;29.48;100.00
6599;BME280;3335;43.198;27.918;2022-07-29T08:53:07;154621.91;;;29.55;100.00
6599;BME280;3335;43.198;27.918;2022-07-29T08:55:40;154650.97;;;29.67;100.00
6599;BME280;3335;43.198;27.918;2022-07-29T08:58:11;154667.44;;;29.74;100.00
6599;BME280;3335;43.198;27.918;2022-07-29T09:00:41;154671.22;;;29.75;100.00
6599;BME280;3335;43.198;27.918;2022-07-29T09:03:12;154697.78;;;29.86;100.00
6599;BME280;3335;43.198;27.918;2022-07-29T09:05:41;154649.72;;;29.67;100.00
6599;BME280;3335;43.198;27.918;2022-07-29T09:08:08;154748.44;;;30.06;100.00
6599;BME280;3335;43.198;27.918;2022-07-29T09:10:36;154772.47;;;30.16;100.00
6599;BME280;3335;43.198;27.918;2022-07-29T09:13:03;154762.38;;;30.12;100.00
6599;BME280;3335;43.198;27.918;2022-07-29T09:15:30;154725.69;;;29.97;100.00
6599;BME280;3335;43.198;27.918;2022-07-29T09:17:57;154743.34;;;30.04;100.00
6599;BME280;3335;43.198;27.918;2022-07-29T09:20:26;154744.63;;;30.05;100.00
6599;BME280;3335;43.198;27.918;2022-07-29T09:23:14;154668.72;;;29.74;100.00
6599;BME280;3335;43.198;27.918;2022-07-29T09:25:41;154799.06;;;30.26;100.00
6599;BME280;3335;43.198;27.918;2022-07-29T09:28:09;154819.28;;;30.34;100.00
6599;BME280;3335;43.198;27.918;2022-07-29T09:30:36;154842.06;;;30.43;100.00
6599;BME280;3335;43.198;27.918;2022-07-29T09:33:16;154844.59;;;30.45;100.00
6599;BME280;3335;43.198;27.918;2022-07-29T09:35:44;154849.69;;;30.47;100.00
6599;BME280;3335;43.198;27.918;2022-07-29T09:38:11;154854.78;;;30.49;100.00
6599;BME280;3335;43.198;27.918;2022-07-29T09:40:39;154725.69;;;29.97;100.00
6599;BME280;3335;43.198;27.918;2022-07-29T09:43:12;154840.78;;;30.43;100.00
6599;BME280;3335;43.198;27.918;2022-07-29T09:45:39;154845.88;;;30.45;100.00
6599;BME280;3335;43.198;27.918;2022-07-29T09:48:14;154853.50;;;30.48;100.00
6599;BME280;3335;43.198;27.918;2022-07-29T09:50:45;154844.59;;;30.45;100.00
6599;BME280;3335;43.198;27.918;2022-07-29T09:53:30;154845.88;;;30.45;100.00
6599;BME280;3335;43.198;27.918;2022-07-29T09:55:59;154864.88;;;30.53;100.00
6599;BME280;3335;43.198;27.918;2022-07-29T09:58:26;154873.72;;;30.56;100.00
6599;BME280;3335;43.198;27.918;2022-07-29T10:00:53;154845.88;;;30.45;100.00
6599;BME280;3335;43.198;27.918;2022-07-29T10:03:21;154899.03;;;30.66;100.00
6599;BME280;3335;43.198;27.918;2022-07-29T10:08:42;154887.66;;;30.62;100.00
6599;BME280;3335;43.198;27.918;2022-07-29T10:11:10;154904.13;;;30.68;100.00
6599;BME280;3335;43.198;27.918;2022-07-29T10:13:38;154786.41;;;30.21;100.00
6599;BME280;3335;43.198;27.918;2022-07-29T10:16:06;154930.72;;;30.79;100.00
6599;BME280;3335;43.198;27.918;2022-07-29T10:18:33;154976.28;;;30.97;100.00
6599;BME280;3335;43.198;27.918;2022-07-29T10:21:00;154972.47;;;30.96;100.00
6599;BME280;3335;43.198;27.918;2022-07-29T10:23:28;154962.34;;;30.92;100.00
6599;BME280;3335;43.198;27.918;2022-07-29T10:25:57;154958.53;;;30.90;100.00
6599;BME280;3335;43.198;27.918;2022-07-29T10:28:24;154980.03;;;30.99;100.00
6599;BME280;3335;43.198;27.918;2022-07-29T10:30:52;154999.09;;;31.06;100.00
6599;BME280;3335;43.198;27.918;2022-07-29T10:33:37;155006.69;;;31.09;100.00
6599;BME280;3335;43.198;27.918;2022-07-29T10:36:19;155034.53;;;31.20;100.00
6599;BME280;3335;43.198;27.918;2022-07-29T10:38:55;155049.75;;;31.26;100.00
6599;BME280;3335;43.198;27.918;2022-07-29T10:41:37;155034.53;;;31.20;100.00
6599;BME280;3335;43.198;27.918;2022-07-29T10:44:12;155091.50;;;31.43;100.00
6599;BME280;3335;43.198;27.918;2022-07-29T10:46:40;155101.63;;;31.47;100.00
6599;BME280;3335;43.198;27.918;2022-07-29T10:49:09;155128.28;;;31.58;100.00
6599;BME280;3335;43.198;27.918;2022-07-29T10:51:57;155133.34;;;31.60;100.00
6599;BME280;3335;43.198;27.918;2022-07-29T10:54:41;155148.53;;;31.66;100.00
6599;BME280;3335;43.198;27.918;2022-07-29T10:57:13;155143.47;;;31.64;100.00
6599;BME280;3335;43.198;27.918;2022-07-29T10:59:40;155170.03;;;31.75;100.00
6599;BME280;3335;43.198;27.918;2022-07-29T11:05:08;155143.47;;;31.64;100.00
6599;BME280;3335;43.198;27.918;2022-07-29T11:07:37;155186.50;;;31.81;100.00
6599;BME280;3335;43.198;27.918;2022-07-29T11:10:20;155145.97;;;31.65;100.00
6599;BME280;3335;43.198;27.918;2022-07-29T11:12:49;155191.59;;;31.83;100.00
6599;BME280;3335;43.198;27.918;2022-07-29T11:15:18;155204.25;;;31.88;100.00
6599;BME280;3335;43.198;27.918;2022-07-29T11:18:08;155206.75;;;31.89;100.00
6599;BME280;3335;43.198;27.918;2022-07-29T11:20:42;155242.22;;;32.03;100.00
6599;BME280;3335;43.198;27.918;2022-07-29T11:23:22;155220.69;;;31.95;100.00
6599;BME280;3335;43.198;27.918;2022-07-29T11:26:15;155196.63;;;31.85;100.00
6599;BME280;3335;43.198;27.918;2022-07-29T11:28:58;155204.25;;;31.88;100.00
6599;BME280;3335;43.198;27.918;2022-07-29T11:31:35;155218.16;;;31.94;100.00
6599;BME280;3335;43.198;27.918;2022-07-29T11:34:21;155219.44;;;31.94;100.00
6599;BME280;3335;43.198;27.918;2022-07-29T11:40:11;155221.97;;;31.95;100.00
6599;BME280;3335;43.198;27.918;2022-07-29T11:42:40;155208.03;;;31.90;100.00
6599;BME280;3335;43.198;27.918;2022-07-29T11:45:10;155215.66;;;31.93;100.00
6599;BME280;3335;43.198;27.918;2022-07-29T11:47:40;155240.94;;;32.03;100.00
6599;BME280;3335;43.198;27.918;2022-07-29T11:50:13;155254.88;;;32.08;100.00
6599;BME280;3335;43.198;27.918;2022-07-29T11:52:41;155280.28;;;32.19;100.00
6599;BME280;3335;43.198;27.918;2022-07-29T11:55:14;155285.34;;;32.21;100.00
6599;BME280;3335;43.198;27.918;2022-07-29T11:57:49;155285.34;;;32.21;100.00
6599;BME280;3335;43.198;27.918;2022-07-29T12:00:28;155303.06;;;32.28;100.00
6599;BME280;3335;43.198;27.918;2022-07-29T12:02:55;155284.09;;;32.20;100.00
6599;BME280;3335;43.198;27.918;2022-07-29T12:05:33;155287.91;;;32.22;100.00
6599;BME280;3335;43.198;27.918;2022-07-29T12:08:09;155239.72;;;32.02;100.00
6599;BME280;3335;43.198;27.918;2022-07-29T12:10:36;155285.34;;;32.21;100.00
6599;BME280;3335;43.198;27.918;2022-07-29T12:13:03;155310.69;;;32.31;100.00
6599;BME280;3335;43.198;27.918;2022-07-29T12:15:32;155308.16;;;32.30;100.00
6599;BME280;3335;43.198;27.918;2022-07-29T12:18:09;155298.03;;;32.26;100.00
6599;BME280;3335;43.198;27.918;2022-07-29T12:20:36;155308.16;;;32.30;100.00
6599;BME280;3335;43.198;27.918;2022-07-29T12:23:05;155295.47;;;32.25;100.00
6599;BME280;3335;43.198;27.918;2022-07-29T12:25:33;155309.41;;;32.30;100.00
6599;BME280;3335;43.198;27.918;2022-07-29T12:28:02;155286.63;;;32.21;100.00
6599;BME280;3335;43.198;27.918;2022-07-29T12:30:39;155332.22;;;32.39;100.00
6599;BME280;3335;43.198;27.918;2022-07-29T12:33:16;155325.84;;;32.37;100.00
6599;BME280;3335;43.198;27.918;2022-07-29T12:35:44;155374.00;;;32.56;100.00
6599;BME280;3335;43.198;27.918;2022-07-29T12:38:12;155344.88;;;32.44;100.00
6599;BME280;3335;43.198;27.918;2022-07-29T12:40:39;155368.97;;;32.54;100.00
6599;BME280;3335;43.198;27.918;2022-07-29T12:43:12;155356.28;;;32.49;100.00
6599;BME280;3335;43.198;27.918;2022-07-29T12:45:42;155358.84;;;32.50;100.00
6599;BME280;3335;43.198;27.918;2022-07-29T12:48:09;155344.88;;;32.44;100.00
6599;BME280;3335;43.198;27.918;2022-07-29T12:50:52;155310.69;;;32.31;100.00
6599;BME280;3335;43.198;27.918;2022-07-29T12:53:19;155303.06;;;32.28;100.00
6599;BME280;3335;43.198;27.918;2022-07-29T12:55:48;155323.38;;;32.36;100.00
6599;BME280;3335;43.198;27.918;2022-07-29T12:58:30;155336.03;;;32.41;100.00
6599;BME280;3335;43.198;27.918;2022-07-29T13:01:05;155342.34;;;32.43;100.00
6599;BME280;3335;43.198;27.918;2022-07-29T13:03:49;155332.22;;;32.39;100.00
6599;BME280;3335;43.198;27.918;2022-07-29T13:06:31;155267.59;;;32.13;100.00
6599;BME280;3335;43.198;27.918;2022-07-29T13:09:05;155303.06;;;32.28;100.00
6599;BME280;3335;43.198;27.918;2022-07-29T13:11:33;155303.06;;;32.28;100.00
6599;BME280;3335;43.198;27.918;2022-07-29T13:14:01;155294.22;;;32.24;100.00